Impacts METAR Board
IDs:

KFMY - Fort Myers/Page Fld, FL, US

Updated at: 1900 UTC 21 Sep 2021
Potential Impact None Slight Moderate High
Time 21/07Z 21/08Z 21/09Z 21/10Z 21/11Z 21/12Z 21/13Z 21/14Z 21/15Z 21/16Z 21/17Z 21/18Z 21/19Z
Temp76 76 76 76 76 77 79 83 88 89 88 79 77
Dewpt73 72 73 73 74 74 74 74 75 75 74 74 72
Altim29.99 29.97 29.97 29.98 30.00 30.03 30.03 30.04 30.05 30.05 30.02 30.01 30.02
VIS10 10 10 10 4 10 10 10 10 10 10 4 3
CIG-- -- -- 4 3 5 -- -- -- -- 35 33 49
CoverCLRCLRCLROVCOVCBKNCLRCLRCLRSCTBKNOVCOVC
FltCatVFRVFRVFRLIFRLIFRIFRVFRVFRVFRVFRVFRMVFRMVFR
WX--------BR-------------TSRATSRA
WDir08010070807060600031018070
WSpd0 3 3 5 5 3 3 4 4 0 6 10 5
WGst-- -- -- -- -- -- -- -- -- -- -- 22 --
Raw hourly METARs
KFMY 210653Z AUTO 00000KT 10SM CLR 24/23 A2999 RMK AO2 SLP157 T02440228
KFMY 210753Z AUTO 08003KT 10SM CLR 24/22 A2997 RMK AO2 SLP152 T02440222
KFMY 210853Z AUTO 10003KT 10SM CLR 24/23 A2997 RMK AO2 SLP151 T02440228 56009
KFMY 211001Z AUTO 07005KT 10SM OVC004 24/23 A2998 RMK AO2 T02440228
KFMY 211053Z 08005KT 4SM BR OVC003 24/23 A3000 RMK AO2 SLP162 T02440233 $
KFMY 211205Z 07003KT 10SM BKN005 25/23 A3003 RMK AO2 T02500233
KFMY 211253Z 06003KT 10SM CLR 26/23 A3003 RMK AO2 SLP170 T02610233
KFMY 211353Z 06004KT 10SM CLR 28/23 A3004 RMK AO2 SLP174 T02830233
KFMY 211453Z VRB04KT 10SM CLR 31/24 A3005 RMK AO2 SLP179 T03110239 53010
KFMY 211553Z 00000KT 10SM SCT028 32/24 A3005 RMK AO2 SLP176 T03170239
KFMY 211653Z 31006KT 10SM BKN035 BKN055 BKN070 31/23 A3002 RMK AO2 SLP168 T03110233
KFMY 211800Z 18010G22KT 4SM -TSRA FEW027 BKN033 OVC065 26/23 A3001 RMK AO2 LTG DSNT NE-S TSB00 P0001 T02610233
KFMY 211856Z 07005KT 3SM TSRA BKN049 OVC070 25/22 A3002 RMK AO2 LTG DSNT NE-SE P0001 T02500222



Page loaded:  19:55 UTC  |   12:55 PM Pacific  |   01:55 PM Mountain  |   02:55 PM Central  |   03:55 PM Eastern

 

ADVISORIES

FORECASTS

FORECASTS

OBSERVATIONS

USER TOOLS

ABOUT US